This is the latest recevied weather packets stored in our database for station/object WB8ZGM-13. If no packets are shown the sender has not sent any weather packets the latest 10 day(s).
| Time | Temp. | Humidity | Pressure | Rain* | Wind** | Luminosity | Snow |
|---|---|---|---|---|---|---|---|
| 1777360340 | 21.11° C | 97% | 994.9 hPa | 0.76 mm | - | - | - |
| 1777359410 | 22.22° C | 90% | 994.8 hPa | 0 mm | - | - | - |
| 1777358480 | 23.33° C | 83% | 994.8 hPa | 0 mm | - | - | - |
| 1777357550 | 23.89° C | 78% | 994.3 hPa | 0 mm | - | - | - |
| 1777356620 | 23.89° C | 79% | 994.5 hPa | 0 mm | - | - | - |
| 1777355720 | 24.44° C | 76% | 994.5 hPa | 0 mm | - | - | - |
| 1777354820 | 23.89° C | 77% | 994.6 hPa | 0 mm | - | - | - |
| 1777353890 | 23.89° C | 77% | 994.4 hPa | 0 mm | - | - | - |
| 1777352960 | 23.89° C | 77% | 994.9 hPa | 0 mm | - | - | - |
| 1777352060 | 24.44° C | 74% | 995 hPa | 0 mm | - | - | - |
| 1777351130 | 24.44° C | 74% | 994.8 hPa | 0 mm | - | - | - |
| 1777350199 | 24.44° C | 73% | 995.1 hPa | 0 mm | - | - | - |
| 1777349269 | 25° C | 73% | 994.9 hPa | 0 mm | - | - | - |
| 1777348339 | 25° C | 72% | 994.9 hPa | 0 mm | - | - | - |
| 1777347409 | 25° C | 72% | 994.8 hPa | 0 mm | - | - | - |
| 1777346509 | 25° C | 72% | 994.9 hPa | 0 mm | - | - | - |
| 1777345579 | 25° C | 72% | 994.5 hPa | 0 mm | - | - | - |
| 1777344679 | 25° C | 72% | 994.8 hPa | 0 mm | - | - | - |
| 1777343749 | 25° C | 71% | 994.7 hPa | 0 mm | - | - | - |
| 1777342849 | 25° C | 71% | 994.5 hPa | 0 mm | - | - | - |
| 1777341919 | 25° C | 71% | 994.5 hPa | 0 mm | - | - | - |
| 1777340989 | 25.56° C | 71% | 994.6 hPa | 0 mm | - | - | - |
| 1777340059 | 25.56° C | 70% | 994.4 hPa | 0 mm | - | - | - |
| 1777339129 | 25.56° C | 70% | 994.3 hPa | 0 mm | - | - | - |
| 1777338229 | 25.56° C | 69% | 994 hPa | 0 mm | - | - | - |
* Rain latest hour (hover to see other rain measurements)
** Current wind speed in m/s (hover to see current wind gust speed)